createdAt,value
2023-05-12T00:04:52.140Z,14.75
2023-05-12T00:09:53.576Z,14.74
2023-05-12T00:14:55.191Z,14.78
2023-05-12T00:19:56.505Z,14.78
2023-05-12T00:24:57.915Z,14.76
2023-05-12T00:29:59.347Z,14.70
2023-05-12T00:35:00.688Z,14.72
2023-05-12T00:40:02.047Z,14.73
2023-05-12T00:45:04.655Z,14.80
2023-05-12T00:50:06.827Z,14.77
2023-05-12T00:55:08.745Z,14.77
2023-05-12T01:00:11.799Z,14.80
2023-05-12T01:05:13.267Z,14.93
2023-05-12T01:10:19.580Z,14.89
2023-05-12T01:15:21.212Z,14.98
2023-05-12T01:20:26.342Z,14.84
2023-05-12T01:25:32.064Z,14.79
2023-05-12T01:30:34.349Z,14.83
2023-05-12T01:35:35.869Z,14.78
2023-05-12T01:40:37.375Z,14.64
2023-05-12T01:45:38.940Z,14.36
2023-05-12T01:50:42.285Z,14.16
2023-05-12T01:55:43.632Z,14.12
2023-05-12T02:00:44.975Z,14.10
2023-05-12T02:05:46.306Z,14.09
2023-05-12T02:10:47.630Z,14.10
2023-05-12T02:15:49.344Z,14.04
2023-05-12T02:20:50.743Z,13.97
2023-05-12T02:25:52.116Z,13.82
2023-05-12T02:30:54.244Z,13.79
2023-05-12T02:35:56.042Z,13.78
2023-05-12T02:40:57.415Z,13.79
2023-05-12T02:45:58.955Z,13.82
2023-05-12T02:51:00.314Z,13.75
2023-05-12T02:56:01.787Z,13.81
2023-05-12T03:01:10.872Z,13.87
2023-05-12T03:06:12.728Z,13.88
2023-05-12T03:11:14.078Z,13.95
2023-05-12T03:16:18.937Z,13.95
2023-05-12T03:21:21.025Z,14.01
2023-05-12T03:26:22.520Z,14.16
2023-05-12T03:31:24.037Z,14.18
2023-05-12T03:36:25.502Z,14.20
2023-05-12T03:41:26.820Z,14.20
2023-05-12T03:46:28.299Z,14.27
2023-05-12T03:51:30.525Z,14.31
2023-05-12T03:56:31.927Z,14.27
2023-05-12T04:01:33.359Z,14.30
2023-05-12T04:06:36.547Z,14.21
2023-05-12T04:11:37.994Z,14.21
2023-05-12T04:16:40.658Z,14.24
2023-05-12T04:21:42.132Z,14.23
2023-05-12T04:26:43.463Z,14.23
2023-05-12T04:31:44.837Z,14.26
2023-05-12T04:36:46.223Z,14.25
2023-05-12T04:41:47.619Z,14.32
2023-05-12T04:46:50.590Z,14.36
2023-05-12T04:51:51.919Z,14.38
2023-05-12T04:56:53.259Z,14.42
2023-05-12T05:01:54.788Z,14.49
2023-05-12T05:06:56.277Z,14.51
2023-05-12T05:11:57.618Z,14.53
2023-05-12T05:16:59.969Z,14.47
2023-05-12T05:22:01.300Z,14.50
2023-05-12T05:27:02.674Z,14.52
2023-05-12T05:32:04.438Z,14.54
2023-05-12T05:37:05.946Z,14.51
2023-05-12T05:42:07.317Z,14.47
2023-05-12T05:47:08.775Z,14.55
2023-05-12T05:52:10.310Z,14.58
2023-05-12T05:57:11.689Z,14.61
2023-05-12T06:02:13.208Z,14.70
2023-05-12T06:07:14.719Z,14.72
2023-05-12T06:12:16.058Z,14.87
2023-05-12T06:17:17.659Z,14.95
2023-05-12T06:22:19.287Z,15.04
2023-05-12T06:27:20.629Z,15.05
2023-05-12T06:32:22.030Z,15.03
2023-05-12T06:37:23.483Z,15.00
2023-05-12T06:42:24.862Z,15.06
2023-05-12T06:47:26.305Z,15.15
2023-05-12T06:52:27.732Z,15.38
2023-05-12T06:57:29.092Z,15.55
2023-05-12T07:02:30.779Z,15.73
2023-05-12T07:07:32.415Z,15.85
2023-05-12T07:12:33.792Z,15.79
2023-05-12T07:17:35.298Z,15.85
2023-05-12T07:22:38.861Z,15.87
2023-05-12T07:27:40.463Z,15.92
2023-05-12T07:32:42.897Z,15.95
2023-05-12T07:37:44.327Z,15.86
2023-05-12T07:42:45.768Z,15.86
2023-05-12T07:47:47.095Z,15.85
2023-05-12T07:52:53.184Z,15.86
2023-05-12T07:57:54.588Z,15.86
2023-05-12T08:02:56.584Z,15.92
2023-05-12T08:07:58.242Z,15.98
2023-05-12T08:12:59.673Z,16.06
2023-05-12T08:18:01.250Z,16.24
2023-05-12T08:23:02.972Z,16.43
2023-05-12T08:28:04.609Z,16.61
2023-05-12T08:33:06.211Z,16.84
2023-05-12T08:38:07.823Z,17.06
2023-05-12T08:43:32.286Z,17.19
2023-05-12T08:48:35.146Z,17.28
2023-05-12T08:53:38.040Z,17.39
2023-05-12T08:58:42.225Z,17.30
2023-05-12T09:03:44.255Z,17.24
2023-05-12T09:08:45.750Z,17.31
2023-05-12T09:14:06.321Z,17.52
2023-05-12T09:19:07.870Z,17.65
2023-05-12T09:24:09.396Z,17.78
2023-05-12T09:29:15.761Z,17.95
2023-05-12T09:34:30.350Z,18.14
2023-05-12T09:39:32.002Z,18.42
2023-05-12T09:44:33.432Z,18.58
2023-05-12T09:49:34.777Z,19.02
2023-05-12T09:54:39.545Z,19.32
2023-05-12T09:59:43.907Z,19.56
2023-05-12T10:04:50.342Z,19.68
2023-05-12T10:09:55.066Z,19.73
2023-05-12T10:14:56.790Z,19.41
2023-05-12T10:19:58.255Z,19.21
2023-05-12T10:25:01.365Z,19.10
2023-05-12T10:30:04.843Z,18.89
2023-05-12T10:35:11.241Z,18.63
2023-05-12T10:40:23.182Z,18.31
2023-05-12T10:45:24.551Z,18.19
2023-05-12T10:50:27.830Z,18.36
2023-05-12T10:55:42.209Z,18.55
2023-05-12T11:00:46.821Z,18.67
2023-05-12T11:05:59.185Z,18.78
2023-05-12T11:11:02.890Z,18.82
2023-05-12T11:16:04.998Z,19.08
2023-05-12T11:21:12.846Z,19.23
2023-05-12T11:26:18.464Z,19.37
2023-05-12T11:31:21.263Z,19.56
2023-05-12T11:36:22.651Z,19.71
2023-05-12T11:41:26.187Z,19.86
2023-05-12T11:46:30.813Z,20.26
2023-05-12T11:51:32.210Z,20.46
2023-05-12T11:56:33.680Z,20.73
2023-05-12T12:01:44.563Z,20.85
2023-05-12T12:06:46.067Z,20.99
2023-05-12T12:11:47.406Z,21.17
2023-05-12T12:16:48.739Z,21.39
2023-05-12T12:21:50.153Z,21.50
2023-05-12T12:26:51.903Z,21.68
2023-05-12T12:31:53.248Z,22.00
2023-05-12T12:36:54.623Z,21.93
2023-05-12T12:41:55.984Z,22.02
2023-05-12T12:46:57.403Z,22.16
2023-05-12T12:51:58.790Z,22.33
2023-05-12T12:57:00.190Z,22.29
2023-05-12T13:02:02.514Z,22.31
2023-05-12T13:07:04.133Z,22.24
2023-05-12T13:12:05.990Z,22.05
2023-05-12T13:17:07.994Z,22.01
2023-05-12T13:22:10.133Z,21.86
2023-05-12T13:27:11.530Z,21.66
2023-05-12T13:32:13.933Z,21.56
2023-05-12T13:37:15.711Z,21.61
2023-05-12T13:42:17.325Z,21.60
2023-05-12T13:47:19.130Z,21.59
2023-05-12T13:52:20.894Z,21.64
2023-05-12T13:57:22.314Z,21.59
2023-05-12T14:02:23.985Z,21.69
2023-05-12T14:07:25.494Z,21.73
2023-05-12T14:12:27.207Z,21.85
2023-05-12T14:17:28.592Z,21.93
2023-05-12T14:22:29.951Z,22.04
2023-05-12T14:27:31.299Z,22.08
2023-05-12T14:32:34.154Z,22.23
2023-05-12T14:37:35.736Z,22.25
2023-05-12T14:42:37.890Z,22.29
2023-05-12T14:47:39.435Z,22.41
2023-05-12T14:52:40.806Z,22.44
2023-05-12T14:57:42.659Z,22.38
2023-05-12T15:02:45.344Z,22.40
2023-05-12T15:07:46.768Z,22.53
2023-05-12T15:12:48.137Z,22.72
2023-05-12T15:17:49.559Z,22.83
2023-05-12T15:22:52.182Z,22.71
2023-05-12T15:27:53.506Z,22.52
2023-05-12T15:32:55.020Z,22.24
2023-05-12T15:37:56.389Z,22.13
2023-05-12T15:42:57.883Z,22.01
2023-05-12T15:47:59.295Z,21.88
2023-05-12T15:53:01.013Z,21.73
2023-05-12T15:58:04.026Z,21.61
2023-05-12T16:03:05.683Z,21.36
2023-05-12T16:08:07.162Z,21.23
2023-05-12T16:13:08.831Z,21.07
2023-05-12T16:18:11.391Z,20.96
2023-05-12T16:23:13.202Z,20.88
2023-05-12T16:28:14.624Z,20.82
2023-05-12T16:33:16.008Z,20.65
2023-05-12T16:38:17.340Z,20.62
2023-05-12T16:43:18.765Z,20.59
2023-05-12T16:48:20.216Z,20.51
2023-05-12T16:53:21.885Z,20.52
2023-05-12T16:58:23.715Z,20.38
2023-05-12T17:03:25.946Z,20.28
2023-05-12T17:08:27.454Z,20.20
2023-05-12T17:13:28.915Z,20.04
2023-05-12T17:18:30.945Z,19.86
2023-05-12T17:23:32.369Z,19.80
2023-05-12T17:28:33.744Z,19.72
2023-05-12T17:33:35.176Z,19.52
2023-05-12T17:38:37.202Z,19.45
2023-05-12T17:43:38.584Z,19.39
2023-05-12T17:48:40.277Z,19.27
2023-05-12T17:53:41.734Z,19.21
2023-05-12T17:58:43.083Z,19.19
2023-05-12T18:03:44.495Z,19.16
2023-05-12T18:08:46.509Z,19.07
2023-05-12T18:13:48.197Z,18.87
2023-05-12T18:18:49.645Z,18.84
2023-05-12T18:23:51.253Z,18.63
2023-05-12T18:28:52.828Z,18.57
2023-05-12T18:33:54.367Z,18.48
2023-05-12T18:38:55.790Z,18.31
2023-05-12T18:43:57.177Z,18.18
2023-05-12T18:48:58.554Z,18.07
2023-05-12T18:53:59.948Z,18.06
2023-05-12T18:59:01.356Z,17.99
2023-05-12T19:04:03.620Z,17.94
2023-05-12T19:09:05.085Z,17.96
2023-05-12T19:14:06.942Z,17.93
2023-05-12T19:19:08.386Z,17.90
2023-05-12T19:24:10.543Z,17.79
2023-05-12T19:29:12.003Z,17.69
2023-05-12T19:34:13.376Z,17.60
2023-05-12T19:39:14.825Z,17.53
2023-05-12T19:44:16.174Z,17.12
2023-05-12T19:49:17.637Z,16.94
2023-05-12T19:54:19.115Z,16.70
2023-05-12T19:59:20.573Z,16.45
2023-05-12T20:04:23.038Z,16.28
2023-05-12T20:09:27.045Z,16.15
2023-05-12T20:14:28.467Z,16.11
2023-05-12T20:19:29.803Z,15.99
2023-05-12T20:24:31.192Z,15.98
2023-05-12T20:29:32.580Z,15.92
2023-05-12T20:34:33.952Z,15.83
2023-05-12T20:39:35.252Z,15.77
2023-05-12T20:44:36.772Z,15.69
2023-05-12T20:49:38.450Z,15.64
2023-05-12T20:54:39.807Z,15.55
2023-05-12T20:59:41.159Z,15.55
2023-05-12T21:04:42.503Z,15.50
2023-05-12T21:09:43.954Z,15.30
2023-05-12T21:14:45.392Z,15.12
2023-05-12T21:19:46.815Z,15.07
2023-05-12T21:29:50.013Z,15.03
2023-05-12T21:34:51.465Z,14.99
2023-05-12T21:39:52.913Z,14.93
2023-05-12T21:44:54.344Z,14.85
2023-05-12T21:49:56.749Z,14.78
2023-05-12T21:54:58.124Z,14.71
2023-05-12T22:00:03.826Z,14.64
2023-05-12T22:05:05.718Z,14.47
2023-05-12T22:10:07.535Z,14.35
2023-05-12T22:15:09.196Z,14.01
2023-05-12T22:20:11.141Z,14.01
2023-05-12T22:25:12.483Z,14.04
2023-05-12T22:30:14.135Z,14.05
2023-05-12T22:35:16.234Z,13.97
2023-05-12T22:40:17.647Z,13.98
2023-05-12T22:45:19.126Z,13.92
2023-05-12T22:50:20.852Z,13.87
2023-05-12T22:55:30.235Z,13.84
2023-05-12T23:00:31.619Z,13.85
2023-05-12T23:05:33.159Z,13.85
2023-05-12T23:10:34.874Z,13.94
2023-05-12T23:15:36.281Z,14.01
2023-05-12T23:20:37.689Z,14.09
2023-05-12T23:25:39.011Z,14.08
2023-05-12T23:30:40.398Z,14.00
2023-05-12T23:35:42.024Z,13.92
2023-05-12T23:40:43.383Z,13.89
2023-05-12T23:45:45.166Z,13.96
2023-05-12T23:50:46.589Z,13.95
2023-05-12T23:55:47.946Z,14.07
